sensor_id;sensor_type;location;lat;lon;timestamp;P1;durP1;ratioP1;P2;durP2;ratioP2
11034;SDS011;5571;48.110;-1.706;2024-01-06T00:00:58;39.80;;;24.40;;
11034;SDS011;5571;48.110;-1.706;2024-01-06T00:03:24;12.63;;;6.47;;
11034;SDS011;5571;48.110;-1.706;2024-01-06T00:05:49;8.43;;;5.77;;
11034;SDS011;5571;48.110;-1.706;2024-01-06T00:08:15;6.87;;;4.87;;
11034;SDS011;5571;48.110;-1.706;2024-01-06T00:10:40;7.97;;;5.37;;
11034;SDS011;5571;48.110;-1.706;2024-01-06T00:13:06;8.07;;;4.83;;
11034;SDS011;5571;48.110;-1.706;2024-01-06T00:15:31;9.00;;;5.43;;
11034;SDS011;5571;48.110;-1.706;2024-01-06T00:17:57;9.37;;;5.83;;
11034;SDS011;5571;48.110;-1.706;2024-01-06T00:20:23;5.43;;;4.73;;
11034;SDS011;5571;48.110;-1.706;2024-01-06T00:22:48;7.27;;;4.80;;
11034;SDS011;5571;48.110;-1.706;2024-01-06T00:25:14;6.37;;;4.90;;
11034;SDS011;5571;48.110;-1.706;2024-01-06T00:27:39;7.57;;;5.00;;
11034;SDS011;5571;48.110;-1.706;2024-01-06T00:30:05;10.03;;;7.43;;
11034;SDS011;5571;48.110;-1.706;2024-01-06T00:32:31;15.70;;;11.30;;
11034;SDS011;5571;48.110;-1.706;2024-01-06T00:34:57;13.87;;;9.50;;
11034;SDS011;5571;48.110;-1.706;2024-01-06T00:37:22;10.87;;;6.77;;
11034;SDS011;5571;48.110;-1.706;2024-01-06T00:39:48;13.50;;;6.73;;
11034;SDS011;5571;48.110;-1.706;2024-01-06T00:42:14;8.27;;;5.33;;
11034;SDS011;5571;48.110;-1.706;2024-01-06T00:44:39;60.70;;;33.20;;
11034;SDS011;5571;48.110;-1.706;2024-01-06T00:47:05;31.00;;;15.13;;
11034;SDS011;5571;48.110;-1.706;2024-01-06T00:49:31;10.90;;;6.00;;
11034;SDS011;5571;48.110;-1.706;2024-01-06T00:51:57;6.60;;;4.13;;
11034;SDS011;5571;48.110;-1.706;2024-01-06T00:54:22;5.40;;;4.30;;
11034;SDS011;5571;48.110;-1.706;2024-01-06T00:56:48;6.93;;;4.87;;
11034;SDS011;5571;48.110;-1.706;2024-01-06T00:59:13;5.97;;;4.33;;
11034;SDS011;5571;48.110;-1.706;2024-01-06T01:01:39;11.47;;;4.90;;
11034;SDS011;5571;48.110;-1.706;2024-01-06T01:04:05;5.63;;;3.80;;
11034;SDS011;5571;48.110;-1.706;2024-01-06T01:06:30;5.57;;;4.10;;
11034;SDS011;5571;48.110;-1.706;2024-01-06T01:08:56;11.20;;;4.23;;
11034;SDS011;5571;48.110;-1.706;2024-01-06T01:11:22;6.43;;;4.10;;
11034;SDS011;5571;48.110;-1.706;2024-01-06T01:13:47;7.27;;;3.87;;
11034;SDS011;5571;48.110;-1.706;2024-01-06T01:16:13;7.30;;;3.90;;
11034;SDS011;5571;48.110;-1.706;2024-01-06T01:18:38;4.63;;;3.60;;
11034;SDS011;5571;48.110;-1.706;2024-01-06T01:21:04;5.90;;;3.80;;
11034;SDS011;5571;48.110;-1.706;2024-01-06T01:23:30;5.60;;;3.70;;
11034;SDS011;5571;48.110;-1.706;2024-01-06T01:25:55;10.80;;;4.57;;
11034;SDS011;5571;48.110;-1.706;2024-01-06T01:28:21;5.60;;;3.67;;
11034;SDS011;5571;48.110;-1.706;2024-01-06T01:30:47;6.30;;;4.03;;
11034;SDS011;5571;48.110;-1.706;2024-01-06T01:33:12;10.03;;;3.90;;
11034;SDS011;5571;48.110;-1.706;2024-01-06T01:35:38;6.23;;;3.30;;
11034;SDS011;5571;48.110;-1.706;2024-01-06T01:38:03;6.67;;;3.77;;
11034;SDS011;5571;48.110;-1.706;2024-01-06T01:40:29;8.57;;;3.60;;
11034;SDS011;5571;48.110;-1.706;2024-01-06T01:42:55;5.70;;;3.33;;
11034;SDS011;5571;48.110;-1.706;2024-01-06T01:45:20;5.33;;;3.40;;
11034;SDS011;5571;48.110;-1.706;2024-01-06T01:47:46;9.73;;;3.83;;
11034;SDS011;5571;48.110;-1.706;2024-01-06T01:50:12;7.43;;;3.57;;
11034;SDS011;5571;48.110;-1.706;2024-01-06T01:52:39;9.03;;;3.20;;
11034;SDS011;5571;48.110;-1.706;2024-01-06T01:55:07;7.13;;;3.33;;
11034;SDS011;5571;48.110;-1.706;2024-01-06T01:57:33;6.47;;;3.27;;
11034;SDS011;5571;48.110;-1.706;2024-01-06T01:59:59;4.03;;;2.90;;
11034;SDS011;5571;48.110;-1.706;2024-01-06T02:02:26;6.70;;;2.70;;
11034;SDS011;5571;48.110;-1.706;2024-01-06T02:04:53;6.93;;;4.37;;
11034;SDS011;5571;48.110;-1.706;2024-01-06T02:07:19;6.23;;;2.97;;
11034;SDS011;5571;48.110;-1.706;2024-01-06T02:09:45;15.03;;;8.13;;
11034;SDS011;5571;48.110;-1.706;2024-01-06T02:12:11;10.27;;;4.67;;
11034;SDS011;5571;48.110;-1.706;2024-01-06T02:14:36;7.43;;;3.40;;
11034;SDS011;5571;48.110;-1.706;2024-01-06T02:17:02;12.57;;;2.80;;
11034;SDS011;5571;48.110;-1.706;2024-01-06T02:19:28;5.50;;;2.60;;
11034;SDS011;5571;48.110;-1.706;2024-01-06T02:21:53;6.73;;;2.43;;
11034;SDS011;5571;48.110;-1.706;2024-01-06T02:24:20;7.27;;;2.40;;
11034;SDS011;5571;48.110;-1.706;2024-01-06T02:26:46;4.00;;;2.33;;
11034;SDS011;5571;48.110;-1.706;2024-01-06T02:29:12;5.70;;;2.57;;
11034;SDS011;5571;48.110;-1.706;2024-01-06T02:31:38;3.47;;;2.00;;
11034;SDS011;5571;48.110;-1.706;2024-01-06T02:34:03;8.17;;;2.17;;
11034;SDS011;5571;48.110;-1.706;2024-01-06T02:36:29;2.93;;;2.10;;
11034;SDS011;5571;48.110;-1.706;2024-01-06T02:38:54;3.47;;;2.17;;
11034;SDS011;5571;48.110;-1.706;2024-01-06T02:41:20;5.80;;;2.10;;
11034;SDS011;5571;48.110;-1.706;2024-01-06T02:43:46;3.40;;;1.87;;
11034;SDS011;5571;48.110;-1.706;2024-01-06T02:46:12;4.67;;;1.80;;
11034;SDS011;5571;48.110;-1.706;2024-01-06T02:48:37;5.07;;;2.00;;
11034;SDS011;5571;48.110;-1.706;2024-01-06T02:51:03;3.13;;;1.90;;
11034;SDS011;5571;48.110;-1.706;2024-01-06T02:53:29;2.83;;;1.60;;
11034;SDS011;5571;48.110;-1.706;2024-01-06T02:55:54;2.83;;;1.50;;
11034;SDS011;5571;48.110;-1.706;2024-01-06T02:58:20;4.07;;;1.80;;
11034;SDS011;5571;48.110;-1.706;2024-01-06T03:00:45;2.43;;;1.80;;
11034;SDS011;5571;48.110;-1.706;2024-01-06T03:03:11;2.80;;;1.53;;
11034;SDS011;5571;48.110;-1.706;2024-01-06T03:05:37;2.63;;;1.70;;
11034;SDS011;5571;48.110;-1.706;2024-01-06T03:08:03;2.03;;;1.43;;
11034;SDS011;5571;48.110;-1.706;2024-01-06T03:10:29;5.60;;;1.77;;
11034;SDS011;5571;48.110;-1.706;2024-01-06T03:12:54;5.20;;;1.80;;
11034;SDS011;5571;48.110;-1.706;2024-01-06T03:15:20;3.80;;;2.20;;
11034;SDS011;5571;48.110;-1.706;2024-01-06T03:17:46;5.80;;;2.17;;
11034;SDS011;5571;48.110;-1.706;2024-01-06T03:20:12;6.50;;;2.37;;
11034;SDS011;5571;48.110;-1.706;2024-01-06T03:22:38;6.30;;;2.57;;
11034;SDS011;5571;48.110;-1.706;2024-01-06T03:25:03;4.67;;;2.20;;
11034;SDS011;5571;48.110;-1.706;2024-01-06T03:27:31;3.37;;;2.27;;
11034;SDS011;5571;48.110;-1.706;2024-01-06T03:29:56;5.07;;;2.47;;
11034;SDS011;5571;48.110;-1.706;2024-01-06T03:32:22;3.97;;;2.40;;
11034;SDS011;5571;48.110;-1.706;2024-01-06T03:34:49;2.53;;;2.33;;
11034;SDS011;5571;48.110;-1.706;2024-01-06T03:37:15;9.57;;;2.77;;
11034;SDS011;5571;48.110;-1.706;2024-01-06T03:39:40;4.50;;;2.27;;
11034;SDS011;5571;48.110;-1.706;2024-01-06T03:42:06;5.83;;;2.43;;
11034;SDS011;5571;48.110;-1.706;2024-01-06T03:44:32;5.03;;;2.03;;
11034;SDS011;5571;48.110;-1.706;2024-01-06T03:46:58;6.10;;;2.10;;
11034;SDS011;5571;48.110;-1.706;2024-01-06T03:49:24;3.80;;;1.90;;
11034;SDS011;5571;48.110;-1.706;2024-01-06T03:51:50;3.23;;;1.67;;
11034;SDS011;5571;48.110;-1.706;2024-01-06T03:54:16;2.63;;;1.60;;
11034;SDS011;5571;48.110;-1.706;2024-01-06T03:56:42;2.60;;;1.70;;
11034;SDS011;5571;48.110;-1.706;2024-01-06T03:59:08;6.00;;;1.93;;
11034;SDS011;5571;48.110;-1.706;2024-01-06T04:01:34;4.13;;;2.20;;
11034;SDS011;5571;48.110;-1.706;2024-01-06T04:04:04;3.63;;;1.80;;
11034;SDS011;5571;48.110;-1.706;2024-01-06T04:06:30;3.73;;;2.07;;
11034;SDS011;5571;48.110;-1.706;2024-01-06T04:08:59;5.27;;;2.20;;
11034;SDS011;5571;48.110;-1.706;2024-01-06T04:11:25;3.43;;;1.67;;
11034;SDS011;5571;48.110;-1.706;2024-01-06T04:13:52;3.67;;;1.43;;
11034;SDS011;5571;48.110;-1.706;2024-01-06T04:16:19;2.90;;;1.50;;
11034;SDS011;5571;48.110;-1.706;2024-01-06T04:18:44;4.23;;;1.50;;
11034;SDS011;5571;48.110;-1.706;2024-01-06T04:21:10;3.07;;;1.53;;
11034;SDS011;5571;48.110;-1.706;2024-01-06T04:23:36;3.97;;;1.73;;
11034;SDS011;5571;48.110;-1.706;2024-01-06T04:26:02;4.47;;;1.50;;
11034;SDS011;5571;48.110;-1.706;2024-01-06T04:28:29;2.20;;;0.90;;
11034;SDS011;5571;48.110;-1.706;2024-01-06T04:30:55;2.27;;;1.30;;
11034;SDS011;5571;48.110;-1.706;2024-01-06T04:33:21;0.80;;;0.80;;
11034;SDS011;5571;48.110;-1.706;2024-01-06T04:35:46;2.97;;;1.50;;
11034;SDS011;5571;48.110;-1.706;2024-01-06T04:38:12;1.50;;;1.33;;
11034;SDS011;5571;48.110;-1.706;2024-01-06T04:40:38;0.90;;;0.90;;
11034;SDS011;5571;48.110;-1.706;2024-01-06T04:43:03;1.33;;;0.70;;
11034;SDS011;5571;48.110;-1.706;2024-01-06T04:45:29;1.30;;;0.63;;
11034;SDS011;5571;48.110;-1.706;2024-01-06T04:47:54;1.10;;;0.73;;
11034;SDS011;5571;48.110;-1.706;2024-01-06T04:50:20;2.87;;;0.90;;
11034;SDS011;5571;48.110;-1.706;2024-01-06T04:52:45;3.17;;;0.93;;
11034;SDS011;5571;48.110;-1.706;2024-01-06T04:55:11;1.33;;;0.60;;
11034;SDS011;5571;48.110;-1.706;2024-01-06T04:57:37;1.73;;;0.67;;
11034;SDS011;5571;48.110;-1.706;2024-01-06T05:00:03;0.97;;;0.53;;
11034;SDS011;5571;48.110;-1.706;2024-01-06T05:02:29;1.30;;;0.70;;
11034;SDS011;5571;48.110;-1.706;2024-01-06T05:04:55;2.60;;;1.10;;
11034;SDS011;5571;48.110;-1.706;2024-01-06T05:07:21;1.23;;;0.63;;
11034;SDS011;5571;48.110;-1.706;2024-01-06T05:09:46;2.33;;;1.00;;
11034;SDS011;5571;48.110;-1.706;2024-01-06T05:12:12;1.97;;;0.50;;
11034;SDS011;5571;48.110;-1.706;2024-01-06T05:14:37;1.70;;;1.47;;
11034;SDS011;5571;48.110;-1.706;2024-01-06T05:17:03;1.67;;;0.93;;
11034;SDS011;5571;48.110;-1.706;2024-01-06T05:19:29;1.03;;;0.80;;
11034;SDS011;5571;48.110;-1.706;2024-01-06T05:21:54;3.40;;;0.80;;
11034;SDS011;5571;48.110;-1.706;2024-01-06T05:24:20;0.97;;;0.80;;
11034;SDS011;5571;48.110;-1.706;2024-01-06T05:26:47;2.37;;;1.00;;
11034;SDS011;5571;48.110;-1.706;2024-01-06T05:29:13;0.80;;;0.80;;
11034;SDS011;5571;48.110;-1.706;2024-01-06T05:31:38;1.77;;;0.97;;
11034;SDS011;5571;48.110;-1.706;2024-01-06T05:34:04;0.90;;;0.90;;
11034;SDS011;5571;48.110;-1.706;2024-01-06T05:36:30;2.10;;;1.00;;
11034;SDS011;5571;48.110;-1.706;2024-01-06T05:38:55;1.30;;;1.20;;
11034;SDS011;5571;48.110;-1.706;2024-01-06T05:41:21;1.67;;;1.20;;
11034;SDS011;5571;48.110;-1.706;2024-01-06T05:43:46;2.10;;;1.20;;
11034;SDS011;5571;48.110;-1.706;2024-01-06T05:46:19;1.90;;;1.13;;
11034;SDS011;5571;48.110;-1.706;2024-01-06T05:48:48;1.87;;;1.10;;
11034;SDS011;5571;48.110;-1.706;2024-01-06T05:51:14;1.20;;;1.03;;
11034;SDS011;5571;48.110;-1.706;2024-01-06T05:53:40;3.90;;;1.03;;
11034;SDS011;5571;48.110;-1.706;2024-01-06T05:56:07;4.43;;;0.93;;
11034;SDS011;5571;48.110;-1.706;2024-01-06T05:58:34;1.23;;;0.80;;
11034;SDS011;5571;48.110;-1.706;2024-01-06T06:00:59;2.60;;;0.90;;
11034;SDS011;5571;48.110;-1.706;2024-01-06T06:03:25;2.63;;;1.30;;
11034;SDS011;5571;48.110;-1.706;2024-01-06T06:05:50;3.00;;;1.20;;
11034;SDS011;5571;48.110;-1.706;2024-01-06T06:08:16;1.73;;;0.90;;
11034;SDS011;5571;48.110;-1.706;2024-01-06T06:10:42;2.20;;;1.30;;
11034;SDS011;5571;48.110;-1.706;2024-01-06T06:13:24;1.10;;;0.77;;
11034;SDS011;5571;48.110;-1.706;2024-01-06T06:15:50;2.63;;;0.90;;
11034;SDS011;5571;48.110;-1.706;2024-01-06T06:18:15;2.90;;;1.17;;
11034;SDS011;5571;48.110;-1.706;2024-01-06T06:20:41;2.70;;;0.97;;
11034;SDS011;5571;48.110;-1.706;2024-01-06T06:23:08;0.70;;;0.70;;
11034;SDS011;5571;48.110;-1.706;2024-01-06T06:25:34;2.47;;;1.07;;
11034;SDS011;5571;48.110;-1.706;2024-01-06T06:28:02;1.90;;;1.10;;
11034;SDS011;5571;48.110;-1.706;2024-01-06T06:30:28;4.93;;;0.97;;
11034;SDS011;5571;48.110;-1.706;2024-01-06T06:32:54;4.10;;;1.20;;
11034;SDS011;5571;48.110;-1.706;2024-01-06T06:35:19;2.03;;;1.10;;
11034;SDS011;5571;48.110;-1.706;2024-01-06T06:37:45;3.43;;;1.30;;
11034;SDS011;5571;48.110;-1.706;2024-01-06T06:40:10;2.30;;;1.43;;
11034;SDS011;5571;48.110;-1.706;2024-01-06T06:42:36;1.73;;;1.30;;
11034;SDS011;5571;48.110;-1.706;2024-01-06T06:45:02;1.40;;;1.23;;
11034;SDS011;5571;48.110;-1.706;2024-01-06T06:47:28;1.57;;;1.30;;
11034;SDS011;5571;48.110;-1.706;2024-01-06T06:49:53;2.00;;;1.70;;
11034;SDS011;5571;48.110;-1.706;2024-01-06T06:52:19;1.83;;;1.63;;
11034;SDS011;5571;48.110;-1.706;2024-01-06T06:54:44;2.67;;;1.73;;
11034;SDS011;5571;48.110;-1.706;2024-01-06T06:57:10;3.20;;;1.90;;
11034;SDS011;5571;48.110;-1.706;2024-01-06T06:59:36;5.70;;;1.73;;
11034;SDS011;5571;48.110;-1.706;2024-01-06T07:02:02;6.40;;;1.60;;
11034;SDS011;5571;48.110;-1.706;2024-01-06T07:04:28;2.60;;;1.50;;
11034;SDS011;5571;48.110;-1.706;2024-01-06T07:06:53;2.73;;;1.60;;
11034;SDS011;5571;48.110;-1.706;2024-01-06T07:09:19;2.47;;;1.63;;
11034;SDS011;5571;48.110;-1.706;2024-01-06T07:11:48;7.93;;;1.90;;
11034;SDS011;5571;48.110;-1.706;2024-01-06T07:14:14;2.40;;;1.53;;
11034;SDS011;5571;48.110;-1.706;2024-01-06T07:16:39;3.03;;;1.47;;
11034;SDS011;5571;48.110;-1.706;2024-01-06T07:19:05;1.93;;;1.37;;
11034;SDS011;5571;48.110;-1.706;2024-01-06T07:21:30;2.60;;;1.57;;
11034;SDS011;5571;48.110;-1.706;2024-01-06T07:23:56;2.90;;;1.70;;
11034;SDS011;5571;48.110;-1.706;2024-01-06T07:26:22;3.73;;;1.87;;
11034;SDS011;5571;48.110;-1.706;2024-01-06T07:28:47;5.33;;;1.80;;
11034;SDS011;5571;48.110;-1.706;2024-01-06T07:31:13;1.67;;;1.50;;
11034;SDS011;5571;48.110;-1.706;2024-01-06T07:33:39;3.83;;;1.57;;
11034;SDS011;5571;48.110;-1.706;2024-01-06T07:36:05;1.63;;;1.50;;
11034;SDS011;5571;48.110;-1.706;2024-01-06T07:38:31;1.80;;;1.70;;
11034;SDS011;5571;48.110;-1.706;2024-01-06T07:40:56;6.00;;;1.80;;
11034;SDS011;5571;48.110;-1.706;2024-01-06T07:43:22;3.17;;;1.90;;
11034;SDS011;5571;48.110;-1.706;2024-01-06T07:45:48;2.50;;;1.70;;
11034;SDS011;5571;48.110;-1.706;2024-01-06T07:48:14;1.63;;;1.50;;
11034;SDS011;5571;48.110;-1.706;2024-01-06T07:50:40;4.43;;;1.73;;
11034;SDS011;5571;48.110;-1.706;2024-01-06T07:53:05;1.80;;;1.70;;
11034;SDS011;5571;48.110;-1.706;2024-01-06T07:55:31;4.40;;;1.67;;
11034;SDS011;5571;48.110;-1.706;2024-01-06T07:57:57;2.30;;;1.90;;
11034;SDS011;5571;48.110;-1.706;2024-01-06T08:00:22;7.53;;;2.23;;
11034;SDS011;5571;48.110;-1.706;2024-01-06T08:02:48;3.43;;;2.03;;
11034;SDS011;5571;48.110;-1.706;2024-01-06T08:05:13;5.43;;;2.83;;
11034;SDS011;5571;48.110;-1.706;2024-01-06T08:07:39;4.87;;;2.60;;
11034;SDS011;5571;48.110;-1.706;2024-01-06T08:10:05;5.13;;;2.93;;
11034;SDS011;5571;48.110;-1.706;2024-01-06T08:12:31;5.17;;;3.23;;
11034;SDS011;5571;48.110;-1.706;2024-01-06T08:14:57;4.23;;;3.10;;
11034;SDS011;5571;48.110;-1.706;2024-01-06T08:17:22;5.67;;;3.47;;
11034;SDS011;5571;48.110;-1.706;2024-01-06T08:19:48;4.37;;;3.40;;
11034;SDS011;5571;48.110;-1.706;2024-01-06T08:22:14;6.50;;;3.57;;
11034;SDS011;5571;48.110;-1.706;2024-01-06T08:24:39;4.07;;;3.23;;
11034;SDS011;5571;48.110;-1.706;2024-01-06T08:27:05;3.53;;;2.93;;
11034;SDS011;5571;48.110;-1.706;2024-01-06T08:29:31;6.63;;;3.40;;
11034;SDS011;5571;48.110;-1.706;2024-01-06T08:31:56;7.83;;;4.20;;
11034;SDS011;5571;48.110;-1.706;2024-01-06T08:34:22;9.70;;;3.37;;
11034;SDS011;5571;48.110;-1.706;2024-01-06T08:36:48;5.37;;;3.10;;
11034;SDS011;5571;48.110;-1.706;2024-01-06T08:39:13;5.37;;;2.77;;
11034;SDS011;5571;48.110;-1.706;2024-01-06T08:41:39;7.93;;;2.80;;
11034;SDS011;5571;48.110;-1.706;2024-01-06T08:44:05;4.03;;;2.23;;
11034;SDS011;5571;48.110;-1.706;2024-01-06T08:46:30;3.67;;;2.33;;
11034;SDS011;5571;48.110;-1.706;2024-01-06T08:48:56;5.83;;;2.10;;
11034;SDS011;5571;48.110;-1.706;2024-01-06T08:51:22;2.27;;;1.50;;
11034;SDS011;5571;48.110;-1.706;2024-01-06T08:53:49;3.47;;;1.70;;
11034;SDS011;5571;48.110;-1.706;2024-01-06T08:56:14;3.63;;;1.47;;
11034;SDS011;5571;48.110;-1.706;2024-01-06T08:58:42;2.03;;;1.50;;
11034;SDS011;5571;48.110;-1.706;2024-01-06T09:01:08;1.87;;;1.30;;
11034;SDS011;5571;48.110;-1.706;2024-01-06T09:03:34;3.47;;;1.50;;
11034;SDS011;5571;48.110;-1.706;2024-01-06T09:05:59;2.03;;;1.07;;
11034;SDS011;5571;48.110;-1.706;2024-01-06T09:08:25;3.03;;;1.23;;
11034;SDS011;5571;48.110;-1.706;2024-01-06T09:10:51;2.47;;;1.30;;
11034;SDS011;5571;48.110;-1.706;2024-01-06T09:13:20;4.57;;;1.20;;
11034;SDS011;5571;48.110;-1.706;2024-01-06T09:15:46;1.90;;;1.20;;
11034;SDS011;5571;48.110;-1.706;2024-01-06T09:18:12;3.40;;;1.13;;
11034;SDS011;5571;48.110;-1.706;2024-01-06T09:20:38;2.53;;;1.20;;
11034;SDS011;5571;48.110;-1.706;2024-01-06T09:23:03;1.50;;;1.13;;
11034;SDS011;5571;48.110;-1.706;2024-01-06T09:25:29;5.27;;;1.20;;
11034;SDS011;5571;48.110;-1.706;2024-01-06T09:27:55;2.80;;;1.47;;
11034;SDS011;5571;48.110;-1.706;2024-01-06T09:30:20;6.17;;;1.73;;
11034;SDS011;5571;48.110;-1.706;2024-01-06T09:32:46;4.93;;;1.67;;
11034;SDS011;5571;48.110;-1.706;2024-01-06T09:35:12;3.17;;;1.60;;
11034;SDS011;5571;48.110;-1.706;2024-01-06T09:37:37;3.60;;;1.70;;
11034;SDS011;5571;48.110;-1.706;2024-01-06T09:40:03;4.27;;;1.60;;
11034;SDS011;5571;48.110;-1.706;2024-01-06T09:42:29;5.20;;;1.67;;
11034;SDS011;5571;48.110;-1.706;2024-01-06T09:44:54;3.37;;;1.57;;
11034;SDS011;5571;48.110;-1.706;2024-01-06T09:47:21;4.13;;;1.70;;
11034;SDS011;5571;48.110;-1.706;2024-01-06T09:49:49;6.10;;;1.70;;
11034;SDS011;5571;48.110;-1.706;2024-01-06T09:52:15;2.83;;;1.70;;
11034;SDS011;5571;48.110;-1.706;2024-01-06T09:54:50;5.33;;;2.00;;
11034;SDS011;5571;48.110;-1.706;2024-01-06T09:57:17;4.90;;;2.30;;
11034;SDS011;5571;48.110;-1.706;2024-01-06T09:59:46;3.77;;;1.97;;
11034;SDS011;5571;48.110;-1.706;2024-01-06T10:02:15;8.83;;;2.90;;
11034;SDS011;5571;48.110;-1.706;2024-01-06T10:04:44;7.80;;;2.10;;
11034;SDS011;5571;48.110;-1.706;2024-01-06T10:07:11;3.57;;;1.70;;
11034;SDS011;5571;48.110;-1.706;2024-01-06T10:09:38;4.87;;;2.10;;
11034;SDS011;5571;48.110;-1.706;2024-01-06T10:12:05;5.00;;;2.03;;
11034;SDS011;5571;48.110;-1.706;2024-01-06T10:14:31;4.37;;;1.93;;
11034;SDS011;5571;48.110;-1.706;2024-01-06T10:16:57;4.93;;;2.23;;
11034;SDS011;5571;48.110;-1.706;2024-01-06T10:19:23;6.90;;;2.03;;
11034;SDS011;5571;48.110;-1.706;2024-01-06T10:21:49;8.57;;;2.40;;
11034;SDS011;5571;48.110;-1.706;2024-01-06T10:24:16;3.77;;;2.60;;
11034;SDS011;5571;48.110;-1.706;2024-01-06T10:26:43;4.77;;;2.10;;
11034;SDS011;5571;48.110;-1.706;2024-01-06T10:29:10;7.93;;;3.10;;
11034;SDS011;5571;48.110;-1.706;2024-01-06T10:31:36;4.20;;;2.57;;
11034;SDS011;5571;48.110;-1.706;2024-01-06T10:34:02;7.33;;;2.47;;
11034;SDS011;5571;48.110;-1.706;2024-01-06T10:36:28;2.63;;;2.00;;
11034;SDS011;5571;48.110;-1.706;2024-01-06T10:38:54;3.60;;;1.80;;
11034;SDS011;5571;48.110;-1.706;2024-01-06T10:41:20;5.27;;;1.57;;
11034;SDS011;5571;48.110;-1.706;2024-01-06T10:43:47;1.53;;;1.43;;
11034;SDS011;5571;48.110;-1.706;2024-01-06T10:46:14;2.70;;;1.70;;
11034;SDS011;5571;48.110;-1.706;2024-01-06T10:48:43;4.20;;;1.80;;
11034;SDS011;5571;48.110;-1.706;2024-01-06T10:51:11;5.83;;;1.70;;
11034;SDS011;5571;48.110;-1.706;2024-01-06T10:53:39;3.93;;;1.70;;
11034;SDS011;5571;48.110;-1.706;2024-01-06T10:56:06;3.10;;;1.60;;
11034;SDS011;5571;48.110;-1.706;2024-01-06T10:58:39;5.50;;;1.50;;
11034;SDS011;5571;48.110;-1.706;2024-01-06T11:01:12;3.97;;;1.70;;
11034;SDS011;5571;48.110;-1.706;2024-01-06T11:03:38;6.53;;;1.67;;
11034;SDS011;5571;48.110;-1.706;2024-01-06T11:06:08;4.07;;;1.70;;
11034;SDS011;5571;48.110;-1.706;2024-01-06T11:08:36;6.60;;;1.60;;
11034;SDS011;5571;48.110;-1.706;2024-01-06T11:11:15;3.83;;;1.97;;
11034;SDS011;5571;48.110;-1.706;2024-01-06T11:13:44;3.33;;;1.63;;
11034;SDS011;5571;48.110;-1.706;2024-01-06T11:16:12;8.37;;;1.50;;
11034;SDS011;5571;48.110;-1.706;2024-01-06T11:19:01;2.97;;;1.30;;
11034;SDS011;5571;48.110;-1.706;2024-01-06T11:21:26;6.87;;;1.50;;
11034;SDS011;5571;48.110;-1.706;2024-01-06T11:26:31;3.57;;;1.67;;
11034;SDS011;5571;48.110;-1.706;2024-01-06T11:28:57;4.83;;;1.73;;
11034;SDS011;5571;48.110;-1.706;2024-01-06T11:31:28;4.13;;;1.50;;
11034;SDS011;5571;48.110;-1.706;2024-01-06T11:33:57;3.43;;;1.17;;
11034;SDS011;5571;48.110;-1.706;2024-01-06T11:36:44;2.83;;;1.10;;
11034;SDS011;5571;48.110;-1.706;2024-01-06T11:42:01;3.33;;;1.50;;
11034;SDS011;5571;48.110;-1.706;2024-01-06T11:44:28;3.40;;;1.30;;
11034;SDS011;5571;48.110;-1.706;2024-01-06T11:46:57;4.47;;;1.60;;
11034;SDS011;5571;48.110;-1.706;2024-01-06T11:49:26;5.50;;;2.00;;
11034;SDS011;5571;48.110;-1.706;2024-01-06T11:51:55;7.30;;;2.43;;
11034;SDS011;5571;48.110;-1.706;2024-01-06T11:54:25;7.53;;;1.63;;
11034;SDS011;5571;48.110;-1.706;2024-01-06T11:56:50;4.93;;;1.77;;
11034;SDS011;5571;48.110;-1.706;2024-01-06T11:59:21;6.23;;;1.60;;
11034;SDS011;5571;48.110;-1.706;2024-01-06T12:01:46;6.90;;;1.47;;
11034;SDS011;5571;48.110;-1.706;2024-01-06T12:04:15;4.27;;;1.60;;
11034;SDS011;5571;48.110;-1.706;2024-01-06T12:06:41;4.73;;;1.77;;
11034;SDS011;5571;48.110;-1.706;2024-01-06T12:09:07;5.40;;;1.90;;
11034;SDS011;5571;48.110;-1.706;2024-01-06T12:11:34;4.17;;;1.67;;
11034;SDS011;5571;48.110;-1.706;2024-01-06T12:14:00;4.53;;;1.13;;
11034;SDS011;5571;48.110;-1.706;2024-01-06T12:16:26;13.00;;;7.37;;
11034;SDS011;5571;48.110;-1.706;2024-01-06T12:18:52;8.63;;;3.23;;
11034;SDS011;5571;48.110;-1.706;2024-01-06T12:21:25;3.73;;;1.70;;
11034;SDS011;5571;48.110;-1.706;2024-01-06T12:23:50;4.10;;;1.93;;
11034;SDS011;5571;48.110;-1.706;2024-01-06T12:26:16;2.83;;;1.40;;
11034;SDS011;5571;48.110;-1.706;2024-01-06T12:28:46;5.47;;;1.50;;
11034;SDS011;5571;48.110;-1.706;2024-01-06T12:31:13;3.80;;;1.30;;
11034;SDS011;5571;48.110;-1.706;2024-01-06T12:33:39;3.73;;;1.27;;
11034;SDS011;5571;48.110;-1.706;2024-01-06T12:36:06;6.63;;;1.50;;
11034;SDS011;5571;48.110;-1.706;2024-01-06T12:38:33;4.60;;;1.60;;
11034;SDS011;5571;48.110;-1.706;2024-01-06T12:41:00;2.20;;;1.43;;
11034;SDS011;5571;48.110;-1.706;2024-01-06T12:43:25;1.53;;;0.97;;
11034;SDS011;5571;48.110;-1.706;2024-01-06T12:45:52;3.23;;;1.40;;
11034;SDS011;5571;48.110;-1.706;2024-01-06T12:48:18;3.10;;;1.13;;
11034;SDS011;5571;48.110;-1.706;2024-01-06T12:50:44;1.60;;;1.20;;
11034;SDS011;5571;48.110;-1.706;2024-01-06T12:53:09;4.30;;;1.20;;
11034;SDS011;5571;48.110;-1.706;2024-01-06T12:55:37;2.40;;;1.03;;
11034;SDS011;5571;48.110;-1.706;2024-01-06T12:58:02;1.33;;;1.20;;
11034;SDS011;5571;48.110;-1.706;2024-01-06T13:00:29;3.00;;;1.30;;
11034;SDS011;5571;48.110;-1.706;2024-01-06T13:02:54;5.37;;;1.43;;
11034;SDS011;5571;48.110;-1.706;2024-01-06T13:05:21;3.17;;;2.10;;
11034;SDS011;5571;48.110;-1.706;2024-01-06T13:07:47;5.93;;;2.73;;
11034;SDS011;5571;48.110;-1.706;2024-01-06T13:10:14;11.53;;;2.70;;
11034;SDS011;5571;48.110;-1.706;2024-01-06T13:12:40;6.37;;;2.13;;
11034;SDS011;5571;48.110;-1.706;2024-01-06T13:15:05;5.57;;;2.80;;
11034;SDS011;5571;48.110;-1.706;2024-01-06T13:17:36;5.20;;;2.70;;
11034;SDS011;5571;48.110;-1.706;2024-01-06T13:20:04;4.50;;;1.50;;
11034;SDS011;5571;48.110;-1.706;2024-01-06T13:22:30;4.97;;;1.63;;
11034;SDS011;5571;48.110;-1.706;2024-01-06T13:24:56;3.23;;;1.60;;
11034;SDS011;5571;48.110;-1.706;2024-01-06T13:27:22;3.73;;;1.40;;
11034;SDS011;5571;48.110;-1.706;2024-01-06T13:29:48;6.97;;;1.70;;
11034;SDS011;5571;48.110;-1.706;2024-01-06T13:32:14;2.53;;;1.60;;
11034;SDS011;5571;48.110;-1.706;2024-01-06T13:34:40;5.90;;;1.97;;
11034;SDS011;5571;48.110;-1.706;2024-01-06T13:37:06;5.77;;;1.90;;
11034;SDS011;5571;48.110;-1.706;2024-01-06T13:39:32;6.00;;;1.80;;
11034;SDS011;5571;48.110;-1.706;2024-01-06T13:41:58;5.87;;;1.77;;
11034;SDS011;5571;48.110;-1.706;2024-01-06T13:44:24;8.13;;;1.60;;
11034;SDS011;5571;48.110;-1.706;2024-01-06T13:46:49;3.07;;;1.47;;
11034;SDS011;5571;48.110;-1.706;2024-01-06T13:49:16;6.27;;;1.50;;
11034;SDS011;5571;48.110;-1.706;2024-01-06T13:51:42;4.30;;;1.60;;
11034;SDS011;5571;48.110;-1.706;2024-01-06T13:54:09;4.17;;;1.37;;
11034;SDS011;5571;48.110;-1.706;2024-01-06T13:56:35;4.97;;;1.53;;
11034;SDS011;5571;48.110;-1.706;2024-01-06T13:59:02;7.17;;;1.40;;
11034;SDS011;5571;48.110;-1.706;2024-01-06T14:01:27;4.23;;;1.50;;
11034;SDS011;5571;48.110;-1.706;2024-01-06T14:03:54;4.10;;;1.50;;
11034;SDS011;5571;48.110;-1.706;2024-01-06T14:06:25;7.30;;;1.90;;
11034;SDS011;5571;48.110;-1.706;2024-01-06T14:08:55;7.07;;;1.77;;
11034;SDS011;5571;48.110;-1.706;2024-01-06T14:11:21;2.83;;;1.43;;
11034;SDS011;5571;48.110;-1.706;2024-01-06T14:13:47;5.63;;;1.30;;
11034;SDS011;5571;48.110;-1.706;2024-01-06T14:16:14;3.93;;;1.37;;
11034;SDS011;5571;48.110;-1.706;2024-01-06T14:18:40;8.40;;;1.67;;
11034;SDS011;5571;48.110;-1.706;2024-01-06T14:21:07;5.03;;;1.47;;
11034;SDS011;5571;48.110;-1.706;2024-01-06T14:23:36;2.97;;;1.20;;
11034;SDS011;5571;48.110;-1.706;2024-01-06T14:26:02;2.47;;;1.40;;
11034;SDS011;5571;48.110;-1.706;2024-01-06T14:28:28;6.40;;;1.67;;
11034;SDS011;5571;48.110;-1.706;2024-01-06T14:30:55;1.97;;;1.00;;
11034;SDS011;5571;48.110;-1.706;2024-01-06T14:33:20;4.83;;;1.30;;
11034;SDS011;5571;48.110;-1.706;2024-01-06T14:35:46;5.20;;;1.60;;
11034;SDS011;5571;48.110;-1.706;2024-01-06T14:38:12;6.97;;;1.97;;
11034;SDS011;5571;48.110;-1.706;2024-01-06T14:40:38;4.77;;;1.30;;
11034;SDS011;5571;48.110;-1.706;2024-01-06T14:43:04;4.63;;;1.30;;
11034;SDS011;5571;48.110;-1.706;2024-01-06T14:45:30;1.87;;;1.07;;
11034;SDS011;5571;48.110;-1.706;2024-01-06T14:47:56;2.87;;;1.30;;